createdAt,value
2019-06-26T00:00:29.911Z,1011.21
2019-06-26T00:01:30.664Z,1011.06
2019-06-26T00:02:32.173Z,1011.16
2019-06-26T00:03:30.411Z,1011.08
2019-06-26T00:04:30.587Z,1011.22
2019-06-26T00:05:30.740Z,1011.16
2019-06-26T00:06:30.893Z,1011.21
2019-06-26T00:07:31.671Z,1011.19
2019-06-26T00:08:31.201Z,1011.21
2019-06-26T00:09:31.692Z,1011.21
2019-06-26T00:10:32.180Z,1011.25
2019-06-26T00:11:31.785Z,1011.25
2019-06-26T00:12:31.918Z,1011.21
2019-06-26T00:13:32.693Z,1011.20
2019-06-26T00:14:32.323Z,1011.20
2019-06-26T00:15:33.171Z,1011.23
2019-06-26T00:16:32.656Z,1011.20
2019-06-26T00:17:34.666Z,1011.20
2019-06-26T00:18:32.970Z,1011.23
2019-06-26T00:19:33.675Z,1011.25
2019-06-26T00:20:34.183Z,1011.24
2019-06-26T00:21:33.690Z,1011.27
2019-06-26T00:22:33.696Z,1011.25
2019-06-26T00:23:34.675Z,1011.32
2019-06-26T00:24:34.679Z,1011.34
2019-06-26T00:25:34.183Z,1011.36
2019-06-26T00:26:34.672Z,1011.32
2019-06-26T00:27:35.196Z,1011.36
2019-06-26T00:28:34.544Z,1011.34
2019-06-26T00:29:35.673Z,1011.32
2019-06-26T00:30:35.693Z,1011.37
2019-06-26T00:31:35.178Z,1011.35
2019-06-26T00:32:35.195Z,1011.38
2019-06-26T00:33:35.296Z,1011.42
2019-06-26T00:34:36.194Z,1011.37
2019-06-26T00:35:36.198Z,1011.42
2019-06-26T00:36:36.205Z,1011.49
2019-06-26T00:37:36.716Z,1011.47
2019-06-26T00:38:39.967Z,1011.47
2019-06-26T00:39:36.277Z,1011.49
2019-06-26T00:40:37.184Z,1011.47
2019-06-26T00:41:37.173Z,1011.50
2019-06-26T00:42:36.743Z,1011.45
2019-06-26T00:43:42.274Z,1011.46
2019-06-26T00:44:40.181Z,1011.56
2019-06-26T00:45:37.349Z,1011.52
2019-06-26T00:46:37.709Z,1011.53
2019-06-26T00:47:37.721Z,1011.57
2019-06-26T00:48:37.821Z,1011.54
2019-06-26T00:49:38.078Z,1011.49
2019-06-26T00:50:39.227Z,1011.56
2019-06-26T00:51:38.470Z,1011.62
2019-06-26T00:52:38.695Z,1011.62
2019-06-26T00:53:38.814Z,1011.55
2019-06-26T00:54:38.954Z,1011.58
2019-06-26T00:55:39.084Z,1011.62
2019-06-26T00:56:39.219Z,1011.65
2019-06-26T00:57:39.710Z,1011.68
2019-06-26T00:58:39.596Z,1011.64
2019-06-26T00:59:39.856Z,1011.70
2019-06-26T01:00:40.004Z,1011.64
2019-06-26T01:01:40.177Z,1011.66
2019-06-26T01:02:40.346Z,1011.68
2019-06-26T01:03:40.533Z,1011.68
2019-06-26T01:04:40.694Z,1011.69
2019-06-26T01:05:40.907Z,1011.74
2019-06-26T01:06:41.043Z,1011.72
2019-06-26T01:07:41.207Z,1011.75
2019-06-26T01:08:41.386Z,1011.65
2019-06-26T01:09:41.577Z,1011.74
2019-06-26T01:10:42.692Z,1011.78
2019-06-26T01:11:41.911Z,1011.70
2019-06-26T01:12:42.201Z,1011.74
2019-06-26T01:13:57.112Z,1011.74
2019-06-26T01:14:43.561Z,1011.75
2019-06-26T01:15:42.646Z,1011.76
2019-06-26T01:16:43.692Z,1011.71
2019-06-26T01:17:43.043Z,1011.74
2019-06-26T01:18:43.251Z,1011.72
2019-06-26T01:19:43.490Z,1011.79
2019-06-26T01:20:43.705Z,1011.75
2019-06-26T01:21:44.195Z,1011.77
2019-06-26T01:22:44.703Z,1011.75
2019-06-26T01:23:44.287Z,1011.74
2019-06-26T01:24:45.187Z,1011.77
2019-06-26T01:25:44.644Z,1011.74
2019-06-26T01:26:44.858Z,1011.81
2019-06-26T01:27:45.069Z,1011.76
2019-06-26T01:28:45.272Z,1011.83
2019-06-26T01:30:19.189Z,1011.78
2019-06-26T01:30:45.625Z,1011.84
2019-06-26T01:31:45.865Z,1011.85
2019-06-26T01:32:46.720Z,1011.90
2019-06-26T01:33:46.237Z,1011.89
2019-06-26T01:34:46.249Z,1011.92
2019-06-26T01:35:46.386Z,1011.87
2019-06-26T01:36:47.213Z,1011.92
2019-06-26T01:37:46.699Z,1011.90
2019-06-26T01:38:46.858Z,1011.84
2019-06-26T01:39:47.101Z,1011.90
2019-06-26T01:40:47.252Z,1011.89
2019-06-26T01:41:47.371Z,1011.87
2019-06-26T01:42:47.458Z,1011.83
2019-06-26T01:43:48.690Z,1011.89
2019-06-26T01:44:47.892Z,1011.88
2019-06-26T01:45:48.147Z,1011.89
2019-06-26T01:46:48.306Z,1011.88
2019-06-26T01:47:48.415Z,1011.92
2019-06-26T01:48:48.649Z,1011.89
2019-06-26T01:49:48.767Z,1011.93
2019-06-26T01:50:49.001Z,1011.88
2019-06-26T01:51:49.137Z,1011.94
2019-06-26T01:52:49.242Z,1011.95
2019-06-26T01:53:50.246Z,1011.98
2019-06-26T01:54:50.262Z,1011.93
2019-06-26T01:55:50.723Z,1011.99
2019-06-26T01:56:50.062Z,1012.02
2019-06-26T01:57:50.195Z,1012.05
2019-06-26T01:58:50.294Z,1012.00
2019-06-26T01:59:50.499Z,1012.06
2019-06-26T02:00:50.733Z,1012.07
2019-06-26T02:01:50.985Z,1012.10
2019-06-26T02:02:51.247Z,1012.02
2019-06-26T02:03:51.275Z,1012.07
2019-06-26T02:04:51.413Z,1012.09
2019-06-26T02:05:51.523Z,1012.06
2019-06-26T02:06:52.733Z,1012.13
2019-06-26T02:07:52.265Z,1012.06
2019-06-26T02:08:52.734Z,1012.10
2019-06-26T02:09:53.243Z,1012.21
2019-06-26T02:10:52.440Z,1012.18
2019-06-26T02:11:52.669Z,1012.20
2019-06-26T02:12:52.823Z,1012.23
2019-06-26T02:13:52.951Z,1012.21
2019-06-26T02:14:53.220Z,1012.23
2019-06-26T02:15:53.318Z,1012.22
2019-06-26T02:16:53.745Z,1012.21
2019-06-26T02:17:53.695Z,1012.24
2019-06-26T02:18:53.888Z,1012.21
2019-06-26T02:19:54.749Z,1012.26
2019-06-26T02:20:54.391Z,1012.26
2019-06-26T02:21:54.754Z,1012.22
2019-06-26T02:22:54.746Z,1012.26
2019-06-26T02:23:55.740Z,1012.26
2019-06-26T02:25:28.735Z,1012.22
2019-06-26T02:25:55.406Z,1012.29
2019-06-26T02:26:55.638Z,1012.27
2019-06-26T02:27:55.738Z,1012.26
2019-06-26T02:28:55.982Z,1012.29
2019-06-26T02:29:56.103Z,1012.37
2019-06-26T02:30:56.232Z,1012.35
2019-06-26T02:31:56.336Z,1012.35
2019-06-26T02:32:56.596Z,1012.37
2019-06-26T02:33:56.746Z,1012.32
2019-06-26T02:34:56.877Z,1012.36
2019-06-26T02:35:57.152Z,1012.30
2019-06-26T02:36:57.312Z,1012.38
2019-06-26T02:37:57.431Z,1012.33
2019-06-26T02:38:57.675Z,1012.36
2019-06-26T02:39:57.778Z,1012.35
2019-06-26T02:40:58.025Z,1012.35
2019-06-26T02:41:58.288Z,1012.40
2019-06-26T02:42:58.275Z,1012.38
2019-06-26T02:43:58.385Z,1012.40
2019-06-26T02:44:58.633Z,1012.37
2019-06-26T02:45:58.757Z,1012.37
2019-06-26T02:47:17.639Z,1012.38
2019-06-26T02:48:01.246Z,1012.41
2019-06-26T02:48:59.467Z,1012.42
2019-06-26T02:49:59.606Z,1012.40
2019-06-26T02:50:59.724Z,1012.50
2019-06-26T02:52:00.303Z,1012.46
2019-06-26T02:53:00.171Z,1012.52
2019-06-26T02:54:00.439Z,1012.46
2019-06-26T02:55:00.549Z,1012.48
2019-06-26T02:56:00.795Z,1012.60
2019-06-26T02:57:01.299Z,1012.58
2019-06-26T02:58:01.164Z,1012.55
2019-06-26T02:59:01.414Z,1012.55
2019-06-26T03:00:01.534Z,1012.57
2019-06-26T03:01:01.691Z,1012.58
2019-06-26T03:02:01.821Z,1012.59
2019-06-26T03:03:01.982Z,1012.61
2019-06-26T03:04:02.100Z,1012.64
2019-06-26T03:05:02.571Z,1012.58
2019-06-26T03:06:03.284Z,1012.62
2019-06-26T03:07:02.524Z,1012.61
2019-06-26T03:08:02.677Z,1012.64
2019-06-26T03:09:03.798Z,1012.67
2019-06-26T03:10:03.032Z,1012.70
2019-06-26T03:11:03.790Z,1012.66
2019-06-26T03:12:04.286Z,1012.63
2019-06-26T03:13:03.673Z,1012.69
2019-06-26T03:14:03.790Z,1012.70
2019-06-26T03:15:08.793Z,1012.70
2019-06-26T03:16:06.789Z,1012.71
2019-06-26T03:17:04.378Z,1012.75
2019-06-26T03:18:04.531Z,1012.67
2019-06-26T03:19:04.688Z,1012.76
2019-06-26T03:20:05.799Z,1012.71
2019-06-26T03:21:04.986Z,1012.72
2019-06-26T03:22:06.226Z,1012.73
2019-06-26T03:23:06.302Z,1012.72
2019-06-26T03:24:05.686Z,1012.70
2019-06-26T03:25:05.837Z,1012.79
2019-06-26T03:26:06.800Z,1012.73
2019-06-26T03:27:09.045Z,1012.76
2019-06-26T03:28:08.286Z,1012.81
2019-06-26T03:29:07.307Z,1012.76
2019-06-26T03:30:06.804Z,1012.78
2019-06-26T03:31:06.797Z,1012.73
2019-06-26T03:32:06.901Z,1012.78
2019-06-26T03:33:07.825Z,1012.76
2019-06-26T03:34:07.204Z,1012.76
2019-06-26T03:35:07.821Z,1012.78
2019-06-26T03:36:07.585Z,1012.78
2019-06-26T03:37:08.810Z,1012.77
2019-06-26T03:38:08.334Z,1012.77
2019-06-26T03:39:08.788Z,1012.82
2019-06-26T03:40:08.386Z,1012.82
2019-06-26T03:41:08.493Z,1012.83
2019-06-26T03:42:09.289Z,1012.83
2019-06-26T03:43:09.309Z,1012.88
2019-06-26T03:44:09.052Z,1012.86
2019-06-26T03:45:24.513Z,1012.86
2019-06-26T03:46:10.436Z,1012.85
2019-06-26T03:47:10.303Z,1012.87
2019-06-26T03:48:10.327Z,1012.89
2019-06-26T03:49:09.797Z,1012.91
2019-06-26T03:50:10.801Z,1012.91
2019-06-26T03:51:13.768Z,1012.94
2019-06-26T03:52:11.307Z,1012.97
2019-06-26T03:53:12.302Z,1012.98
2019-06-26T03:54:10.790Z,1013.03
2019-06-26T03:55:10.909Z,1013.02
2019-06-26T03:56:11.809Z,1013.02
2019-06-26T03:57:11.182Z,1013.04
2019-06-26T03:58:12.305Z,1013.04
2019-06-26T03:59:11.826Z,1013.07
2019-06-26T04:00:12.308Z,1013.07
2019-06-26T04:01:11.941Z,1013.08
2019-06-26T04:02:12.067Z,1013.04
2019-06-26T04:03:12.188Z,1013.05
2019-06-26T04:04:12.321Z,1013.07
2019-06-26T04:05:12.474Z,1013.07
2019-06-26T04:06:12.975Z,1013.01
2019-06-26T04:07:13.304Z,1013.05
2019-06-26T04:08:13.034Z,1012.99
2019-06-26T04:09:13.156Z,1013.05
2019-06-26T04:10:13.293Z,1013.09
2019-06-26T04:11:14.321Z,1013.05
2019-06-26T04:12:14.300Z,1013.08
2019-06-26T04:13:13.762Z,1013.05
2019-06-26T04:14:13.867Z,1013.11
2019-06-26T04:15:14.188Z,1013.04
2019-06-26T04:16:14.329Z,1013.05
2019-06-26T04:17:14.441Z,1013.09
2019-06-26T04:18:14.699Z,1013.04
2019-06-26T04:19:14.825Z,1013.07
2019-06-26T04:20:14.983Z,1013.10
2019-06-26T04:21:15.126Z,1013.07
2019-06-26T04:22:15.261Z,1013.15
2019-06-26T04:23:15.403Z,1013.06
2019-06-26T04:24:15.528Z,1013.09
2019-06-26T04:25:15.678Z,1013.05
2019-06-26T04:26:16.866Z,1013.02
2019-06-26T04:27:15.987Z,1013.09
2019-06-26T04:28:16.142Z,1013.07
2019-06-26T04:29:18.336Z,1013.01
2019-06-26T04:30:16.550Z,1013.04
2019-06-26T04:31:16.681Z,1013.06
2019-06-26T04:32:17.830Z,1012.89
2019-06-26T04:33:17.072Z,1012.87
2019-06-26T04:34:17.172Z,1012.87
2019-06-26T04:35:17.420Z,1012.81
2019-06-26T04:36:18.576Z,1012.85
2019-06-26T04:37:17.784Z,1012.92
2019-06-26T04:38:18.010Z,1012.85
2019-06-26T04:39:18.257Z,1012.80
2019-06-26T04:40:20.469Z,1012.81
2019-06-26T04:41:19.652Z,1012.83
2019-06-26T04:42:18.743Z,1012.78
2019-06-26T04:43:19.827Z,1012.81
2019-06-26T04:44:19.826Z,1012.77
2019-06-26T04:45:19.346Z,1012.83
2019-06-26T04:46:19.491Z,1012.79
2019-06-26T04:47:19.603Z,1012.78
2019-06-26T04:48:19.717Z,1012.75
2019-06-26T04:49:19.962Z,1012.67
2019-06-26T04:50:20.857Z,1012.68
2019-06-26T04:51:20.225Z,1012.61
2019-06-26T04:52:20.342Z,1012.48
2019-06-26T04:53:20.584Z,1012.27
2019-06-26T04:54:20.825Z,1012.17
2019-06-26T04:55:21.059Z,1012.18
2019-06-26T04:56:21.195Z,1011.98
2019-06-26T04:57:21.325Z,1011.67
2019-06-26T04:58:21.499Z,1011.64
2019-06-26T04:59:21.631Z,1011.80
2019-06-26T05:00:22.073Z,1011.91
2019-06-26T05:01:22.815Z,1012.02
2019-06-26T05:02:22.065Z,1012.14
2019-06-26T05:03:22.313Z,1012.12
2019-06-26T05:04:22.343Z,1012.15
2019-06-26T05:05:38.612Z,1012.17
2019-06-26T05:06:23.661Z,1012.20
2019-06-26T05:07:22.849Z,1012.13
2019-06-26T05:08:23.824Z,1012.03
2019-06-26T05:09:23.230Z,1011.89
2019-06-26T05:10:23.362Z,1011.64
2019-06-26T05:11:24.325Z,1011.44
2019-06-26T05:12:24.326Z,1011.40
2019-06-26T05:13:23.945Z,1011.54
2019-06-26T05:14:24.077Z,1011.62
2019-06-26T05:15:24.189Z,1011.72
2019-06-26T05:16:24.419Z,1011.73
2019-06-26T05:17:24.541Z,1011.60
2019-06-26T05:18:24.782Z,1011.22
2019-06-26T05:19:25.410Z,1011.10
2019-06-26T05:20:25.161Z,1011.19
2019-06-26T05:21:25.311Z,1011.25
2019-06-26T05:22:25.455Z,1011.33
2019-06-26T05:23:25.849Z,1011.32
2019-06-26T05:24:25.730Z,1011.39
2019-06-26T05:25:26.001Z,1011.46
2019-06-26T05:26:26.119Z,1011.40
2019-06-26T05:27:26.274Z,1011.46
2019-06-26T05:28:26.411Z,1011.46
2019-06-26T05:29:27.332Z,1011.46
2019-06-26T05:30:26.728Z,1011.45
2019-06-26T05:31:26.873Z,1011.50
2019-06-26T05:32:27.852Z,1011.54
2019-06-26T05:33:27.838Z,1011.56
2019-06-26T05:34:27.471Z,1011.58
2019-06-26T05:35:27.632Z,1011.53
2019-06-26T05:36:27.794Z,1011.58
2019-06-26T05:37:27.938Z,1011.51
2019-06-26T05:38:28.119Z,1011.57
2019-06-26T05:39:28.277Z,1011.54
2019-06-26T05:40:28.445Z,1011.51
2019-06-26T05:41:28.625Z,1011.54
2019-06-26T05:42:28.788Z,1011.57
2019-06-26T05:43:28.967Z,1011.59
2019-06-26T05:44:29.142Z,1011.56
2019-06-26T05:45:29.378Z,1011.51
2019-06-26T05:46:31.468Z,1011.61
2019-06-26T05:47:30.681Z,1011.58
2019-06-26T05:48:29.923Z,1011.55
2019-06-26T05:49:30.186Z,1011.51
2019-06-26T05:50:30.316Z,1011.52
2019-06-26T05:51:30.596Z,1011.56
2019-06-26T05:52:30.729Z,1011.57
2019-06-26T05:53:30.970Z,1011.57
2019-06-26T05:54:31.209Z,1011.56
2019-06-26T05:55:31.442Z,1011.52
2019-06-26T05:56:31.607Z,1011.46
2019-06-26T05:57:31.871Z,1011.44
2019-06-26T05:58:31.866Z,1011.47
2019-06-26T05:59:32.883Z,1011.48
2019-06-26T06:00:32.909Z,1011.52
2019-06-26T06:01:32.397Z,1011.45
2019-06-26T06:02:32.871Z,1011.49
2019-06-26T06:03:32.714Z,1011.50
2019-06-26T06:04:32.858Z,1011.46
2019-06-26T06:05:33.008Z,1011.53
2019-06-26T06:06:41.540Z,1011.51
2019-06-26T06:07:35.379Z,1011.54
2019-06-26T06:08:33.864Z,1011.58
2019-06-26T06:09:34.353Z,1011.48
2019-06-26T06:10:33.710Z,1011.55
2019-06-26T06:11:35.365Z,1011.48
2019-06-26T06:12:33.960Z,1011.57
2019-06-26T06:13:34.383Z,1011.48
2019-06-26T06:14:34.868Z,1011.48
2019-06-26T06:15:34.415Z,1011.47
2019-06-26T06:16:47.028Z,1011.44
2019-06-26T06:17:36.711Z,1011.48
2019-06-26T06:18:34.881Z,1011.47
2019-06-26T06:19:35.088Z,1011.47
2019-06-26T06:20:35.222Z,1011.48
2019-06-26T06:21:35.378Z,1011.47
2019-06-26T06:22:36.951Z,1011.51
2019-06-26T06:23:35.700Z,1011.48
2019-06-26T06:24:36.905Z,1011.42
2019-06-26T06:25:36.854Z,1011.20
2019-06-26T06:26:36.940Z,1011.05
2019-06-26T06:27:37.428Z,1011.10
2019-06-26T06:28:36.705Z,1011.08
2019-06-26T06:29:36.855Z,1010.33
2019-06-26T06:30:37.427Z,1009.43
2019-06-26T06:31:37.203Z,1008.70
2019-06-26T06:32:37.880Z,1008.32
2019-06-26T06:33:37.583Z,1008.21
2019-06-26T06:34:38.422Z,1008.18
2019-06-26T06:35:37.941Z,1007.88
2019-06-26T06:36:38.090Z,1007.84
2019-06-26T06:37:38.203Z,1008.15
2019-06-26T06:38:38.364Z,1008.55
2019-06-26T06:39:38.544Z,1008.94
2019-06-26T06:40:38.708Z,1009.21
2019-06-26T06:41:38.858Z,1009.12
2019-06-26T06:42:39.006Z,1008.83
2019-06-26T06:43:39.183Z,1008.29
2019-06-26T06:44:39.311Z,1008.35
2019-06-26T06:45:39.519Z,1008.68
2019-06-26T06:46:39.665Z,1008.82
2019-06-26T06:47:39.847Z,1009.06
2019-06-26T06:48:40.011Z,1009.13
2019-06-26T06:49:40.874Z,1009.45
2019-06-26T06:50:40.442Z,1009.61
2019-06-26T06:51:40.622Z,1009.84
2019-06-26T06:52:40.767Z,1009.98
2019-06-26T06:53:40.946Z,1010.16
2019-06-26T06:54:41.065Z,1010.27
2019-06-26T06:55:41.198Z,1010.33
2019-06-26T06:56:41.436Z,1010.43
2019-06-26T06:57:41.470Z,1010.43
2019-06-26T06:58:41.632Z,1010.60
2019-06-26T06:59:41.760Z,1010.60
2019-06-26T07:00:42.041Z,1010.67
2019-06-26T07:01:42.200Z,1010.71
2019-06-26T07:02:42.391Z,1010.72
2019-06-26T07:03:42.578Z,1010.67
2019-06-26T07:04:42.744Z,1010.75
2019-06-26T07:05:42.939Z,1010.85
2019-06-26T07:06:43.071Z,1010.91
2019-06-26T07:07:43.288Z,1010.94
2019-06-26T07:08:43.371Z,1010.89
2019-06-26T07:09:43.599Z,1010.88
2019-06-26T07:10:43.821Z,1010.91
2019-06-26T07:11:43.975Z,1010.94
2019-06-26T07:12:44.117Z,1010.94
2019-06-26T07:13:44.257Z,1010.99
2019-06-26T07:14:44.420Z,1010.95
2019-06-26T07:15:44.592Z,1010.97
2019-06-26T07:16:44.858Z,1010.96
2019-06-26T07:17:44.926Z,1010.94
2019-06-26T07:18:45.071Z,1010.85
2019-06-26T07:19:45.332Z,1010.70
2019-06-26T07:20:45.469Z,1010.76
2019-06-26T07:21:45.606Z,1010.71
2019-06-26T07:22:45.801Z,1010.78
2019-06-26T07:23:46.008Z,1010.80
2019-06-26T07:24:46.198Z,1010.68
2019-06-26T07:25:46.313Z,1010.50
2019-06-26T07:26:46.441Z,1010.32
2019-06-26T07:27:46.593Z,1010.15
2019-06-26T07:28:46.736Z,1010.12
2019-06-26T07:29:46.923Z,1010.25
2019-06-26T07:30:47.052Z,1010.31
2019-06-26T07:31:47.878Z,1010.47
2019-06-26T07:32:47.336Z,1010.57
2019-06-26T07:33:47.492Z,1010.64
2019-06-26T07:34:47.640Z,1010.66
2019-06-26T07:35:47.786Z,1010.75
2019-06-26T07:36:47.970Z,1010.73
2019-06-26T07:37:48.150Z,1010.83
2019-06-26T07:38:48.335Z,1010.80
2019-06-26T07:39:49.948Z,1010.80
2019-06-26T07:40:48.734Z,1010.74
2019-06-26T07:41:48.903Z,1010.63
2019-06-26T07:42:49.080Z,1010.45
2019-06-26T07:43:49.263Z,1010.20
2019-06-26T07:44:49.445Z,1010.16
2019-06-26T07:45:49.710Z,1010.21
2019-06-26T07:46:49.832Z,1010.40
2019-06-26T07:47:49.995Z,1010.49
2019-06-26T07:48:50.157Z,1010.58
2019-06-26T07:49:50.318Z,1010.54
2019-06-26T07:50:50.491Z,1010.49
2019-06-26T07:51:50.672Z,1010.43
2019-06-26T07:52:51.036Z,1010.46
2019-06-26T07:53:50.960Z,1010.35
2019-06-26T07:54:51.108Z,1010.29
2019-06-26T07:55:51.277Z,1010.25
2019-06-26T07:56:52.391Z,1010.31
2019-06-26T07:57:51.610Z,1010.38
2019-06-26T07:59:29.798Z,1010.54
2019-06-26T07:59:55.586Z,1010.57
2019-06-26T08:00:52.102Z,1010.60
2019-06-26T08:01:54.503Z,1010.65
2019-06-26T08:03:04.504Z,1010.71
2019-06-26T08:03:57.507Z,1010.67
2019-06-26T08:04:53.268Z,1010.66
2019-06-26T08:06:40.868Z,1010.40
2019-06-26T08:06:53.179Z,1010.38
2019-06-26T08:07:53.291Z,1010.45
2019-06-26T08:08:53.503Z,1010.56
2019-06-26T08:09:53.541Z,1010.57
2019-06-26T08:10:53.679Z,1010.66
2019-06-26T08:11:53.821Z,1010.62
2019-06-26T08:12:53.940Z,1010.69
2019-06-26T08:13:54.137Z,1010.77
2019-06-26T08:14:54.935Z,1010.83
2019-06-26T08:15:54.524Z,1010.86
2019-06-26T08:16:54.648Z,1010.91
2019-06-26T08:18:00.434Z,1010.87
2019-06-26T08:18:57.013Z,1010.91
2019-06-26T08:19:55.819Z,1010.99
2019-06-26T08:21:11.067Z,1010.97
2019-06-26T08:21:57.509Z,1011.02
2019-06-26T08:22:55.849Z,1011.04
2019-06-26T08:23:55.888Z,1011.06
2019-06-26T08:24:56.058Z,1011.03
2019-06-26T08:26:30.442Z,1011.14
2019-06-26T08:26:56.979Z,1011.16
2019-06-26T08:27:56.632Z,1011.24
2019-06-26T08:28:56.790Z,1011.16
2019-06-26T08:29:57.093Z,1011.20
2019-06-26T08:31:18.281Z,1011.20
2019-06-26T08:32:10.815Z,1011.25
2019-06-26T08:32:59.408Z,1011.27
2019-06-26T08:33:57.772Z,1011.25
2019-06-26T08:34:57.844Z,1011.25
2019-06-26T08:35:58.975Z,1011.25
2019-06-26T08:36:58.252Z,1011.32
2019-06-26T08:38:10.201Z,1011.34
2019-06-26T08:39:00.574Z,1011.36
2019-06-26T08:39:58.775Z,1011.36
2019-06-26T08:40:58.957Z,1011.40
2019-06-26T08:41:59.218Z,1011.30
2019-06-26T08:42:59.331Z,1011.30
2019-06-26T08:43:59.516Z,1011.30
2019-06-26T08:45:00.034Z,1011.15
2019-06-26T08:45:59.793Z,1011.09
2019-06-26T08:47:00.569Z,1010.97
2019-06-26T08:48:16.920Z,1010.97
2019-06-26T08:49:02.247Z,1011.01
2019-06-26T08:50:00.533Z,1011.02
2019-06-26T08:51:00.665Z,1011.02
2019-06-26T08:52:01.834Z,1011.03
2019-06-26T08:53:00.980Z,1011.07
2019-06-26T08:54:04.504Z,1011.10
2019-06-26T08:55:01.441Z,1011.11
2019-06-26T08:56:01.588Z,1011.14
2019-06-26T08:57:01.861Z,1011.17
2019-06-26T08:58:02.025Z,1011.19
2019-06-26T08:59:03.986Z,1011.23
2019-06-26T09:00:02.366Z,1011.24
2019-06-26T09:01:02.492Z,1011.24
2019-06-26T09:02:02.735Z,1011.28
2019-06-26T09:03:03.540Z,1011.28
2019-06-26T09:04:03.006Z,1011.33
2019-06-26T09:05:03.960Z,1011.30
2019-06-26T09:06:03.423Z,1011.34
2019-06-26T09:07:04.004Z,1011.28
2019-06-26T09:08:04.611Z,1011.26
2019-06-26T09:09:04.078Z,1011.26
2019-06-26T09:10:04.240Z,1011.26
2019-06-26T09:11:04.397Z,1011.21
2019-06-26T09:12:04.979Z,1011.15
2019-06-26T09:13:04.741Z,1011.06
2019-06-26T09:14:04.929Z,1010.89
2019-06-26T09:15:05.960Z,1010.89
2019-06-26T09:16:06.366Z,1010.82
2019-06-26T09:17:05.480Z,1010.79
2019-06-26T09:18:06.550Z,1010.80
2019-06-26T09:19:05.771Z,1010.89
2019-06-26T09:20:05.900Z,1010.92
2019-06-26T09:21:06.986Z,1010.91
2019-06-26T09:22:40.871Z,1010.82
2019-06-26T09:23:07.099Z,1010.87
2019-06-26T09:24:08.232Z,1010.96
2019-06-26T09:25:20.828Z,1010.93
2019-06-26T09:26:08.255Z,1011.01
2019-06-26T09:27:07.316Z,1010.96
2019-06-26T09:28:07.565Z,1011.01
2019-06-26T09:29:07.684Z,1010.95
2019-06-26T09:30:08.093Z,1011.02
2019-06-26T09:31:08.358Z,1011.11
2019-06-26T09:32:08.376Z,1011.14
2019-06-26T09:33:08.490Z,1011.21
2019-06-26T09:34:08.708Z,1011.20
2019-06-26T09:35:08.928Z,1011.21
2019-06-26T09:36:10.034Z,1011.23
2019-06-26T09:37:09.279Z,1011.18
2019-06-26T09:38:09.458Z,1011.06
2019-06-26T09:39:09.583Z,1011.03
2019-06-26T09:40:09.698Z,1011.03
2019-06-26T09:41:09.832Z,1011.06
2019-06-26T09:42:09.945Z,1011.03
2019-06-26T09:43:10.199Z,1011.02
2019-06-26T09:44:10.276Z,1011.02
2019-06-26T09:45:10.519Z,1011.03
2019-06-26T09:46:10.726Z,1010.96
2019-06-26T09:47:10.862Z,1010.98
2019-06-26T09:48:11.055Z,1011.00
2019-06-26T09:49:11.159Z,1011.06
2019-06-26T09:50:11.407Z,1011.04
2019-06-26T09:51:11.513Z,1011.01
2019-06-26T09:52:11.785Z,1011.00
2019-06-26T09:53:11.910Z,1011.14
2019-06-26T09:54:12.094Z,1011.11
2019-06-26T09:55:13.016Z,1011.10
2019-06-26T09:56:12.368Z,1011.11
2019-06-26T09:57:13.562Z,1011.13
2019-06-26T09:58:13.484Z,1011.18
2019-06-26T09:59:14.540Z,1011.16
2019-06-26T10:00:13.032Z,1011.12
2019-06-26T10:01:14.256Z,1011.08
2019-06-26T10:02:13.545Z,1011.16
2019-06-26T10:03:13.553Z,1011.09
2019-06-26T10:04:13.708Z,1011.13
2019-06-26T10:05:13.845Z,1011.10
2019-06-26T10:06:13.959Z,1011.04
2019-06-26T10:07:14.087Z,1011.01
2019-06-26T10:08:14.398Z,1010.95
2019-06-26T10:09:14.504Z,1010.96
2019-06-26T10:10:14.673Z,1011.00
2019-06-26T10:11:14.774Z,1010.91
2019-06-26T10:12:14.926Z,1010.90
2019-06-26T10:13:15.116Z,1010.94
2019-06-26T10:14:15.243Z,1010.86
2019-06-26T10:15:15.396Z,1010.82
2019-06-26T10:16:15.564Z,1010.80
2019-06-26T10:17:49.934Z,1010.69
2019-06-26T10:18:16.099Z,1010.71
2019-06-26T10:19:16.173Z,1010.67
2019-06-26T10:20:17.555Z,1010.61
2019-06-26T10:21:33.805Z,1010.56
2019-06-26T10:22:38.658Z,1010.55
2019-06-26T10:23:27.894Z,1010.46
2019-06-26T10:24:19.126Z,1010.50
2019-06-26T10:25:17.065Z,1010.50
2019-06-26T10:26:17.159Z,1010.51
2019-06-26T10:27:17.376Z,1010.46
2019-06-26T10:28:17.613Z,1010.35
2019-06-26T10:29:18.662Z,1010.26
2019-06-26T10:30:17.869Z,1010.29
2019-06-26T10:31:18.579Z,1010.18
2019-06-26T10:32:19.331Z,1010.10
2019-06-26T10:33:18.439Z,1010.02
2019-06-26T10:34:18.684Z,1009.99
2019-06-26T10:35:18.766Z,1009.90
2019-06-26T10:36:18.895Z,1009.85
2019-06-26T10:37:19.132Z,1009.75
2019-06-26T10:38:19.274Z,1009.69
2019-06-26T10:39:19.385Z,1009.61
2019-06-26T10:40:19.561Z,1009.49
2019-06-26T10:41:19.663Z,1009.42
2019-06-26T10:42:19.859Z,1009.28
2019-06-26T10:43:19.995Z,1009.28
2019-06-26T10:44:20.169Z,1009.25
2019-06-26T10:45:20.280Z,1009.07
2019-06-26T10:46:20.570Z,1009.10
2019-06-26T10:47:20.682Z,1009.06
2019-06-26T10:48:20.820Z,1009.09
2019-06-26T10:49:26.958Z,1009.10
2019-06-26T10:50:23.062Z,1009.12
2019-06-26T10:51:21.186Z,1009.23
2019-06-26T10:52:21.337Z,1009.30
2019-06-26T10:53:21.468Z,1009.43
2019-06-26T10:54:21.601Z,1009.45
2019-06-26T10:55:21.739Z,1009.51
2019-06-26T10:56:21.863Z,1009.53
2019-06-26T10:57:22.002Z,1009.62
2019-06-26T10:58:22.150Z,1009.68
2019-06-26T10:59:22.500Z,1009.74
2019-06-26T11:00:22.601Z,1009.78
2019-06-26T11:01:22.840Z,1009.85
2019-06-26T11:02:23.105Z,1009.87
2019-06-26T11:03:23.313Z,1009.95
2019-06-26T11:04:23.427Z,1009.99
2019-06-26T11:05:23.666Z,1010.01
2019-06-26T11:06:23.911Z,1010.08
2019-06-26T11:07:24.208Z,1010.11
2019-06-26T11:08:24.338Z,1010.18
2019-06-26T11:09:24.500Z,1010.27
2019-06-26T11:10:24.632Z,1010.32
2019-06-26T11:11:24.821Z,1010.32
2019-06-26T11:12:24.938Z,1010.33
2019-06-26T11:13:25.069Z,1010.35
2019-06-26T11:14:25.215Z,1010.33
2019-06-26T11:15:25.347Z,1010.42
2019-06-26T11:16:25.478Z,1010.51
2019-06-26T11:17:26.634Z,1010.56
2019-06-26T11:18:25.872Z,1010.56
2019-06-26T11:19:42.401Z,1010.60
2019-06-26T11:20:27.080Z,1010.63
2019-06-26T11:21:26.349Z,1010.68
2019-06-26T11:22:26.515Z,1010.74
2019-06-26T11:23:26.660Z,1010.74
2019-06-26T11:24:26.823Z,1010.77
2019-06-26T11:25:26.941Z,1010.80
2019-06-26T11:26:27.083Z,1010.80
2019-06-26T11:27:27.230Z,1010.82
2019-06-26T11:28:27.386Z,1010.77
2019-06-26T11:29:27.531Z,1010.77
2019-06-26T11:30:27.743Z,1010.79
2019-06-26T11:31:27.890Z,1010.83
2019-06-26T11:32:28.030Z,1010.82
2019-06-26T11:33:28.354Z,1010.82
2019-06-26T11:34:28.473Z,1010.83
2019-06-26T11:35:28.657Z,1010.82
2019-06-26T11:36:28.832Z,1010.81
2019-06-26T11:37:29.000Z,1010.84
2019-06-26T11:38:29.187Z,1010.83
2019-06-26T11:39:29.333Z,1010.80
2019-06-26T11:40:29.496Z,1010.84
2019-06-26T11:41:29.667Z,1010.83
2019-06-26T11:42:32.690Z,1010.82
2019-06-26T11:43:31.008Z,1010.83
2019-06-26T11:44:30.173Z,1010.77
2019-06-26T11:45:30.313Z,1010.81
2019-06-26T11:46:30.483Z,1010.79
2019-06-26T11:47:30.647Z,1010.83
2019-06-26T11:48:30.844Z,1010.78
2019-06-26T11:49:31.010Z,1010.76
2019-06-26T11:50:31.203Z,1010.75
2019-06-26T11:51:31.400Z,1010.79
2019-06-26T11:52:31.539Z,1010.79
2019-06-26T11:53:31.715Z,1010.88
2019-06-26T11:54:31.873Z,1010.84
2019-06-26T11:55:32.016Z,1010.89
2019-06-26T11:56:32.164Z,1010.78
2019-06-26T11:57:32.299Z,1010.81
2019-06-26T11:58:32.474Z,1010.80
2019-06-26T11:59:32.599Z,1010.79
2019-06-26T12:00:32.796Z,1010.79
2019-06-26T12:01:32.981Z,1010.78
2019-06-26T12:02:33.106Z,1010.71
2019-06-26T12:03:33.252Z,1010.74
2019-06-26T12:04:33.411Z,1010.74
2019-06-26T12:05:33.583Z,1010.73
2019-06-26T12:06:33.734Z,1010.73
2019-06-26T12:07:33.987Z,1010.68